Accueil
METAR-TAF:

METAR-TAF

Aéroports :

St Athan, Pays de Galles

latitude: 51-24N, longitude: 003-26W, altitude: 50 m

Observation

Le bulletin a été fait il y a 1 heure et 8 minutes, à 00:50 UTC
Vent 15 kt de ouest
Température 16°C
Humidité 100%
Pression 1015 hPa
Visibilité: 2200 m
pluie faible

METAR: EGDX 240050Z AUTO 26015KT 2200 -RA OVC002/// 16/16 Q1015

Heure: 02:58 (01:58 UTC)

Prévision

Le bulletin a été fait il y a 12 heures et 9 minutes, à 13:49 UTC
Prévision valable du 23 à 15 UTC au 23 à 18 UTC
Vent 18 kt de ouest avec des rafales jusqu'à 28 kt
Visibilité 10 km ou plus
Nuages fragmentés à une hauteur de 2000 ft
Probabilité 40% :
Temporairement
du 23 à 15 UTC au 23 à 18 UTC
Nuages épars à une hauteur de 1400 ft

TAF: EGDX 231349Z 2315/2318 26018G28KT 9999 BKN020 PROB40 TEMPO 2315/2318 SCT014

Observations et prévisions météorologiques de plus de 4000 aéroports (messages METAR et TAF).

Les stations disponibles sont représentées par des disques jaunes et rouges sur la carte.

Passer la souris dessus pour voir le nom de la station.

Cliquer dessus pour voir les observations et prévisions météorologiques.

Pour changer de carte: cliquez sur les boutons verts avec une croix noire pour zoomer, sur le bouton vert avec un tiret pour effectuer un zoom arrière, ou sur les flèches vertes pour les cartes adjacentes.


METAR-TAF: